createdAt,value
2017-07-23T00:00:55.452Z,89.79
2017-07-23T00:02:05.732Z,89.6
2017-07-23T00:03:15.653Z,89.6
2017-07-23T00:04:25.940Z,89.5
2017-07-23T00:05:36.228Z,89.6
2017-07-23T00:06:46.193Z,89.6
2017-07-23T00:07:56.173Z,89.6
2017-07-23T00:09:06.700Z,89.69
2017-07-23T00:10:16.687Z,89.69
2017-07-23T00:11:26.958Z,89.4
2017-07-23T00:12:37.232Z,89.4
2017-07-23T00:13:47.501Z,89.31
2017-07-23T00:14:57.733Z,89.31
2017-07-23T00:16:07.717Z,89.12
2017-07-23T00:17:18.014Z,89.4
2017-07-23T00:18:28.291Z,89.6
2017-07-23T00:19:38.606Z,89.5
2017-07-23T00:20:48.825Z,89.5
2017-07-23T00:21:59.111Z,89.4
2017-07-23T00:23:09.417Z,89.69
2017-07-23T00:24:19.688Z,89.6
2017-07-23T00:25:29.360Z,89.55
2017-07-23T00:26:39.584Z,89.6
2017-07-23T00:27:49.883Z,89.69
2017-07-23T00:29:00.167Z,89.46
2017-07-23T00:30:10.463Z,89.6
2017-07-23T00:31:20.723Z,89.84
2017-07-23T00:32:30.963Z,89.55
2017-07-23T00:33:41.245Z,89.79
2017-07-23T00:34:51.533Z,89.75
2017-07-23T00:36:01.809Z,89.79
2017-07-23T00:37:11.776Z,89.79
2017-07-23T00:38:22.313Z,89.79
2017-07-23T00:39:32.593Z,89.5
2017-07-23T00:40:42.565Z,89.5
2017-07-23T00:41:52.545Z,89.4
2017-07-23T00:43:02.812Z,89.4
2017-07-23T00:44:13.337Z,89.5
2017-07-23T00:45:23.597Z,89.36
2017-07-23T00:46:33.568Z,89.46
2017-07-23T00:47:43.533Z,89.69
2017-07-23T00:48:53.825Z,89.5
2017-07-23T00:50:04.047Z,89.79
2017-07-23T00:51:14.324Z,89.6
2017-07-23T00:52:23.977Z,89.79
2017-07-23T00:53:34.265Z,89.5
2017-07-23T00:54:44.248Z,89.4
2017-07-23T00:55:54.464Z,89.6
2017-07-23T00:57:04.432Z,89.55
2017-07-23T00:58:14.706Z,89.79
2017-07-23T00:59:24.978Z,90.27
2017-07-23T01:00:35.250Z,90.13
2017-07-23T01:01:45.776Z,90.13
2017-07-23T01:02:56.058Z,90.27
2017-07-23T01:04:06.035Z,90.13
2017-07-23T01:05:16.011Z,89.94
2017-07-23T01:06:25.986Z,90.22
2017-07-23T01:07:36.211Z,90.22
2017-07-23T01:08:46.487Z,90.03
2017-07-23T01:09:56.984Z,90.13
2017-07-23T01:11:06.971Z,89.46
2017-07-23T01:12:17.250Z,89.46
2017-07-23T01:13:27.776Z,89.07
2017-07-23T01:14:38.053Z,88.88
2017-07-23T01:15:48.360Z,88.11
2017-07-23T01:16:58.631Z,88.59
2017-07-23T01:18:08.920Z,88.21
2017-07-23T01:19:19.456Z,87.88
2017-07-23T01:20:29.734Z,87.98
2017-07-23T01:21:39.403Z,87.11
2017-07-23T01:22:49.683Z,87.05
2017-07-23T01:23:59.962Z,86.63
2017-07-23T01:25:10.533Z,86.54
2017-07-23T01:26:20.503Z,85.28
2017-07-23T01:27:30.449Z,84.33
2017-07-23T01:28:40.761Z,83.47
2017-07-23T01:29:50.733Z,83.47
2017-07-23T01:31:01.264Z,83.08
2017-07-23T01:32:11.239Z,83.22
2017-07-23T01:33:21.200Z,83.12
2017-07-23T01:34:31.504Z,83.08
2017-07-23T01:35:41.775Z,83.18
2017-07-23T01:36:52.303Z,83.41
2017-07-23T01:38:02.260Z,83.37
2017-07-23T01:39:12.539Z,83.08
2017-07-23T01:40:22.844Z,82.98
2017-07-23T01:41:33.112Z,82.98
2017-07-23T01:42:43.366Z,83.18
2017-07-23T01:43:53.649Z,83.18
2017-07-23T01:45:03.606Z,83.18
2017-07-23T01:46:13.260Z,83.27
2017-07-23T01:47:23.219Z,83.37
2017-07-23T01:48:33.457Z,83.08
2017-07-23T01:49:43.758Z,83.65
2017-07-23T01:50:54.025Z,83.47
2017-07-23T01:52:04.314Z,83.08
2017-07-23T01:53:14.590Z,83.27
2017-07-23T01:54:25.102Z,83.08
2017-07-23T01:55:35.052Z,83.08
2017-07-23T01:56:45.012Z,83.18
2017-07-23T01:57:54.693Z,82.89
2017-07-23T01:59:04.970Z,83.08
2017-07-23T02:00:15.502Z,83.65
2017-07-23T02:01:25.759Z,83.47
2017-07-23T02:02:35.744Z,82.7
2017-07-23T02:03:46.023Z,82.74
2017-07-23T02:04:56.324Z,82.89
2017-07-23T02:06:06.903Z,83.37
2017-07-23T02:07:17.191Z,83.56
2017-07-23T02:08:27.461Z,83.56
2017-07-23T02:09:37.115Z,82.98
2017-07-23T02:10:47.385Z,82.89
2017-07-23T02:11:57.914Z,83.47
2017-07-23T02:13:08.211Z,83.18
2017-07-23T02:14:18.500Z,82.7
2017-07-23T02:15:28.783Z,83.27
2017-07-23T02:16:39.070Z,83.18
2017-07-23T02:17:49.602Z,82.98
2017-07-23T02:18:59.868Z,83.65
2017-07-23T02:20:10.150Z,82.79
2017-07-23T02:21:20.473Z,83.47
2017-07-23T02:22:30.429Z,83.08
2017-07-23T02:23:40.642Z,83.18
2017-07-23T02:24:50.610Z,83.37
2017-07-23T02:26:00.902Z,83.27
2017-07-23T02:27:11.184Z,83.08
2017-07-23T02:28:21.470Z,83.37
2017-07-23T02:29:31.987Z,83.37
2017-07-23T02:30:42.264Z,83.47
2017-07-23T02:31:52.255Z,83.47
2017-07-23T02:33:02.559Z,83.47
2017-07-23T02:34:12.936Z,83.65
2017-07-23T02:35:23.474Z,83.27
2017-07-23T02:36:33.441Z,83.08
2017-07-23T02:37:43.409Z,83.65
2017-07-23T02:38:53.692Z,82.98
2017-07-23T02:40:03.661Z,82.89
2017-07-23T02:41:14.198Z,82.51
2017-07-23T02:42:24.496Z,82.51
2017-07-23T02:43:34.794Z,82.51
2017-07-23T02:44:45.102Z,82.7
2017-07-23T02:45:55.060Z,82.51
2017-07-23T02:47:05.577Z,82.31
2017-07-23T02:48:15.557Z,82.41
2017-07-23T02:49:25.823Z,82.41
2017-07-23T02:50:35.791Z,82.6
2017-07-23T02:51:46.078Z,82.7
2017-07-23T02:52:56.309Z,82.6
2017-07-23T02:54:06.596Z,82.6
2017-07-23T02:55:16.556Z,82.51
2017-07-23T02:56:26.838Z,82.51
2017-07-23T02:57:36.817Z,82.51
2017-07-23T02:58:47.239Z,82.7
2017-07-23T02:59:57.520Z,82.6
2017-07-23T03:01:07.186Z,82.7
2017-07-23T03:02:17.469Z,82.41
2017-07-23T03:03:27.739Z,82.41
2017-07-23T03:04:37.976Z,82.51
2017-07-23T03:05:48.270Z,82.51
2017-07-23T03:06:58.550Z,82.6
2017-07-23T03:08:08.499Z,82.7
2017-07-23T03:09:18.784Z,82.46
2017-07-23T03:10:29.333Z,82.18
2017-07-23T03:11:39.621Z,82.7
2017-07-23T03:12:49.905Z,82.41
2017-07-23T03:14:00.182Z,82.51
2017-07-23T03:15:10.466Z,82.51
2017-07-23T03:16:20.985Z,82.7
2017-07-23T03:17:30.947Z,82.6
2017-07-23T03:18:41.235Z,82.6
2017-07-23T03:19:51.515Z,82.6
2017-07-23T03:21:01.790Z,82.7
2017-07-23T03:22:12.326Z,82.6
2017-07-23T03:23:22.629Z,82.7
2017-07-23T03:24:32.909Z,82.41
2017-07-23T03:25:43.210Z,82.21
2017-07-23T03:26:53.175Z,82.51
2017-07-23T03:28:03.762Z,82.6
2017-07-23T03:29:13.746Z,82.51
2017-07-23T03:30:24.027Z,82.51
2017-07-23T03:31:34.347Z,82.51
2017-07-23T03:32:44.657Z,82.7
2017-07-23T03:33:55.191Z,82.6
2017-07-23T03:35:05.467Z,82.51
2017-07-23T03:36:15.773Z,82.6
2017-07-23T03:37:25.438Z,82.21
2017-07-23T03:38:35.411Z,82.51
2017-07-23T03:39:45.926Z,82.51
2017-07-23T03:40:56.193Z,82.41
2017-07-23T03:42:06.478Z,82.41
2017-07-23T03:43:16.745Z,82.51
2017-07-23T03:44:27.016Z,82.7
2017-07-23T03:45:37.220Z,82.7
2017-07-23T03:46:47.203Z,82.6
2017-07-23T03:47:57.500Z,82.7
2017-07-23T03:49:07.455Z,82.31
2017-07-23T03:50:17.131Z,82.6
2017-07-23T03:51:27.338Z,82.31
2017-07-23T03:52:37.610Z,82.7
2017-07-23T03:53:47.889Z,82.7
2017-07-23T03:54:58.155Z,82.31
2017-07-23T03:56:08.430Z,82.7
2017-07-23T03:57:18.641Z,82.7
2017-07-23T03:58:28.596Z,82.7
2017-07-23T03:59:38.884Z,82.51
2017-07-23T04:00:49.160Z,82.51
2017-07-23T04:01:59.148Z,82.51
2017-07-23T04:03:09.684Z,82.51
2017-07-23T04:04:19.955Z,82.7
2017-07-23T04:05:29.941Z,82.89
2017-07-23T04:06:39.892Z,82.7
2017-07-23T04:07:50.181Z,82.7
2017-07-23T04:09:00.406Z,82.7
2017-07-23T04:10:10.371Z,82.51
2017-07-23T04:11:20.643Z,82.41
2017-07-23T04:12:30.923Z,82.6
2017-07-23T04:13:41.212Z,82.6
2017-07-23T04:14:51.124Z,82.51
2017-07-23T04:16:01.393Z,82.21
2017-07-23T04:17:11.360Z,82.41
2017-07-23T04:18:21.631Z,82.7
2017-07-23T04:19:31.601Z,82.89
2017-07-23T04:20:41.818Z,82.79
2017-07-23T04:21:52.085Z,82.89
2017-07-23T04:23:02.412Z,82.98
2017-07-23T04:24:12.376Z,82.7
2017-07-23T04:25:22.334Z,83.47
2017-07-23T04:26:32.551Z,83.65
2017-07-23T04:27:42.508Z,83.08
2017-07-23T04:28:52.472Z,83.27
2017-07-23T04:30:02.746Z,83.18
2017-07-23T04:31:13.023Z,83.27
2017-07-23T04:32:23.246Z,82.98
2017-07-23T04:33:32.588Z,82.98
2017-07-23T04:34:42.556Z,83.18
2017-07-23T04:35:52.203Z,83.18
2017-07-23T04:37:02.468Z,82.98
2017-07-23T04:38:12.066Z,83.27
2017-07-23T04:39:22.033Z,83.18
2017-07-23T04:40:31.999Z,83.27
2017-07-23T04:41:42.271Z,82.98
2017-07-23T04:42:52.566Z,83.08
2017-07-23T04:44:02.230Z,83.56
2017-07-23T04:45:12.515Z,82.79
2017-07-23T04:46:22.774Z,82.98
2017-07-23T04:47:33.044Z,83.37
2017-07-23T04:48:43.307Z,83.47
2017-07-23T04:49:53.895Z,83.27
2017-07-23T04:51:04.193Z,82.98
2017-07-23T04:52:14.467Z,83.65
2017-07-23T04:53:24.740Z,83.75
2017-07-23T04:54:34.706Z,83.85
2017-07-23T04:55:45.244Z,84.04
2017-07-23T04:56:55.216Z,84.04
2017-07-23T04:58:05.511Z,83.65
2017-07-23T04:59:15.477Z,84.04
2017-07-23T05:00:25.754Z,83.85
2017-07-23T05:01:35.651Z,83.65
2017-07-23T05:02:45.625Z,83.47
2017-07-23T05:03:55.683Z,83.61
2017-07-23T05:05:05.953Z,83.42
2017-07-23T05:06:16.240Z,83.61
2017-07-23T05:07:26.445Z,83.65
2017-07-23T05:08:36.411Z,83.37
2017-07-23T05:09:46.681Z,83.47
2017-07-23T05:10:56.965Z,83.65
2017-07-23T05:12:07.245Z,83.56
2017-07-23T05:13:17.774Z,83.65
2017-07-23T05:14:27.754Z,83.56
2017-07-23T05:15:37.722Z,83.56
2017-07-23T05:16:48.009Z,83.56
2017-07-23T05:17:57.991Z,83.56
2017-07-23T05:19:08.514Z,83.75
2017-07-23T05:20:18.788Z,83.56
2017-07-23T05:21:28.451Z,83.56
2017-07-23T05:22:38.731Z,83.47
2017-07-23T05:23:49.013Z,83.65
2017-07-23T05:24:59.537Z,83.65
2017-07-23T05:26:09.546Z,83.47
2017-07-23T05:27:19.819Z,83.47
2017-07-23T05:28:30.095Z,83.47
2017-07-23T05:29:40.392Z,83.75
2017-07-23T05:30:50.936Z,83.65
2017-07-23T05:32:00.600Z,83.75
2017-07-23T05:33:10.892Z,84.04
2017-07-23T05:34:21.191Z,83.7
2017-07-23T05:35:31.159Z,84.37
2017-07-23T05:36:41.377Z,84.85
2017-07-23T05:37:51.666Z,84.56
2017-07-23T05:39:01.953Z,84.95
2017-07-23T05:40:12.250Z,84.95
2017-07-23T05:41:22.233Z,84.85
2017-07-23T05:42:32.773Z,84.85
2017-07-23T05:43:43.052Z,85.04
2017-07-23T05:44:53.339Z,85.14
2017-07-23T05:46:02.995Z,84.95
2017-07-23T05:47:12.971Z,85.14
2017-07-23T05:48:23.496Z,85.33
2017-07-23T05:49:33.488Z,85.91
2017-07-23T05:50:43.782Z,86
2017-07-23T05:51:54.061Z,85.91
2017-07-23T05:53:04.029Z,85.81
2017-07-23T05:54:14.576Z,86.1
2017-07-23T05:55:24.866Z,85.85
2017-07-23T05:56:34.981Z,85.75
2017-07-23T05:57:44.944Z,85.37
2017-07-23T05:58:55.204Z,85.37
2017-07-23T06:00:05.725Z,85.95
2017-07-23T06:01:16.026Z,86.14
2017-07-23T06:02:26.303Z,86.52
2017-07-23T06:03:36.274Z,86.57
2017-07-23T06:04:46.237Z,87.62
2017-07-23T06:05:56.449Z,87.53
2017-07-23T06:07:06.726Z,88.87
2017-07-23T06:08:16.690Z,89.54
2017-07-23T06:09:26.964Z,90.7
2017-07-23T06:10:37.246Z,91.56
2017-07-23T06:11:47.784Z,92.38
2017-07-23T06:12:58.057Z,94.59
2017-07-23T06:14:08.020Z,93.91
2017-07-23T06:15:17.983Z,95.26
2017-07-23T06:16:27.950Z,95.45
2017-07-23T06:17:38.493Z,96.03
2017-07-23T06:18:48.770Z,95.89
2017-07-23T06:19:59.040Z,95.79
2017-07-23T06:21:09.014Z,95.17
2017-07-23T06:22:19.310Z,95.17
2017-07-23T06:23:29.907Z,94.11
2017-07-23T06:24:39.877Z,93.73
2017-07-23T06:25:50.153Z,92.91
2017-07-23T06:27:00.425Z,92.82
2017-07-23T06:28:10.757Z,92.24
2017-07-23T06:29:20.980Z,92.14
2017-07-23T06:30:30.631Z,91.96
2017-07-23T06:31:40.607Z,92.48
2017-07-23T06:32:50.893Z,92.33
2017-07-23T06:34:01.180Z,91.86
2017-07-23T06:35:11.725Z,91.09
2017-07-23T06:36:21.994Z,91.09
2017-07-23T06:37:31.344Z,90.99
2017-07-23T06:38:41.318Z,90.8
2017-07-23T06:39:51.621Z,90.56
2017-07-23T06:41:02.143Z,90.27
2017-07-23T06:42:12.407Z,90.56
2017-07-23T06:43:22.672Z,91.13
2017-07-23T06:44:32.635Z,90.84
2017-07-23T06:45:42.913Z,91.23
2017-07-23T06:46:52.820Z,90.94
2017-07-23T06:48:02.795Z,91.52
2017-07-23T06:49:12.776Z,90.75
2017-07-23T06:50:23.062Z,91.04
2017-07-23T06:51:33.331Z,91.13
2017-07-23T06:52:43.855Z,90.84
2017-07-23T06:53:53.832Z,90.84
2017-07-23T06:55:04.136Z,87.77
2017-07-23T06:56:14.424Z,85.24
2017-07-23T06:57:24.388Z,82.16
2017-07-23T06:58:34.921Z,81.97
2017-07-23T06:59:45.203Z,82.54
2017-07-23T07:00:55.481Z,82.93
2017-07-23T07:02:05.479Z,83.41
2017-07-23T07:03:15.456Z,83.22
2017-07-23T07:04:25.353Z,82.98
2017-07-23T07:05:35.636Z,82.79
2017-07-23T07:06:45.630Z,83.41
2017-07-23T07:07:55.297Z,83.56
2017-07-23T07:09:05.585Z,83.75
2017-07-23T07:10:16.148Z,83.7
2017-07-23T07:11:26.111Z,83.56
2017-07-23T07:12:36.423Z,82.93
2017-07-23T07:13:46.710Z,81.4
2017-07-23T07:14:56.670Z,78.23
2017-07-23T07:16:07.216Z,77.46
2017-07-23T07:17:17.485Z,77.26
2017-07-23T07:18:27.779Z,76.88
2017-07-23T07:19:38.062Z,77.26
2017-07-23T07:20:48.027Z,76.69
2017-07-23T07:21:58.245Z,76.79
2017-07-23T07:23:08.224Z,76.4
2017-07-23T07:24:18.494Z,76.02
2017-07-23T07:25:28.155Z,75.82
2017-07-23T07:26:38.448Z,75.63
2017-07-23T07:27:48.965Z,76.02
2017-07-23T07:28:59.226Z,75.82
2017-07-23T07:30:09.492Z,76.12
2017-07-23T07:31:19.760Z,75.63
2017-07-23T07:32:29.415Z,75.92
2017-07-23T07:33:39.633Z,76.12
2017-07-23T07:34:49.913Z,75.92
2017-07-23T07:35:59.889Z,75.92
2017-07-23T07:37:10.193Z,75.92
2017-07-23T07:38:20.477Z,75.73
2017-07-23T07:39:30.721Z,76.02
2017-07-23T07:40:40.700Z,75.73
2017-07-23T07:41:50.986Z,75.15
2017-07-23T07:43:01.248Z,75.06
2017-07-23T07:44:11.528Z,75.35
2017-07-23T07:45:22.053Z,74.62
2017-07-23T07:46:32.021Z,74.62
2017-07-23T07:47:41.999Z,74.23
2017-07-23T07:48:51.960Z,73.75
2017-07-23T07:50:01.613Z,73.85
2017-07-23T07:51:12.136Z,73.18
2017-07-23T07:52:22.429Z,72.79
2017-07-23T07:53:32.400Z,72.41
2017-07-23T07:54:42.370Z,72.31
2017-07-23T07:55:52.640Z,72.31
2017-07-23T07:57:03.167Z,71.83
2017-07-23T07:58:13.450Z,71.67
2017-07-23T07:59:23.427Z,71.39
2017-07-23T08:00:33.388Z,71.1
2017-07-23T08:01:43.380Z,70.62
2017-07-23T08:02:53.913Z,69.75
2017-07-23T08:04:03.562Z,69.37
2017-07-23T08:05:13.223Z,68.51
2017-07-23T08:06:23.526Z,67.25
2017-07-23T08:07:33.830Z,66.3
2017-07-23T08:08:44.361Z,65.05
2017-07-23T08:09:54.646Z,64.76
2017-07-23T08:11:04.637Z,64.66
2017-07-23T08:12:14.599Z,63.41
2017-07-23T08:13:24.890Z,63.32
2017-07-23T08:14:34.805Z,63.22
2017-07-23T08:15:45.112Z,64.37
2017-07-23T08:16:55.403Z,65.05
2017-07-23T08:18:05.692Z,65.05
2017-07-23T08:19:15.969Z,65.33
2017-07-23T08:20:26.195Z,65.33
2017-07-23T08:21:36.479Z,67.25
2017-07-23T08:22:46.773Z,67.25
2017-07-23T08:23:56.773Z,66.97
2017-07-23T08:25:07.081Z,67.35
2017-07-23T08:26:17.294Z,67.54
2017-07-23T08:27:27.570Z,67.54
2017-07-23T08:28:37.244Z,66.87
2017-07-23T08:29:47.236Z,67.16
2017-07-23T08:30:57.533Z,66.77
2017-07-23T08:32:07.743Z,67.93
2017-07-23T08:33:18.027Z,67.25
2017-07-23T08:34:28.306Z,67.25
2017-07-23T08:35:38.288Z,66.97
2017-07-23T08:36:48.238Z,67.16
2017-07-23T08:37:58.745Z,67.74
2017-07-23T08:39:09.047Z,67.83
2017-07-23T08:40:19.336Z,67.16
2017-07-23T08:41:29.620Z,67.77
2017-07-23T08:42:39.595Z,67.54
2017-07-23T08:43:50.142Z,67.64
2017-07-23T08:45:00.447Z,67.86
2017-07-23T08:46:10.409Z,67.38
2017-07-23T08:47:20.716Z,67.58
2017-07-23T08:48:30.695Z,71.91
2017-07-23T08:49:40.652Z,71.58
2017-07-23T08:50:50.923Z,70.9
2017-07-23T08:52:00.889Z,71.81
2017-07-23T08:53:11.196Z,71.1
2017-07-23T08:54:21.716Z,70.14
2017-07-23T08:55:31.992Z,69.5
2017-07-23T08:56:42.277Z,69.85
2017-07-23T08:57:52.235Z,69.85
2017-07-23T08:59:02.216Z,69.66
2017-07-23T09:00:12.520Z,69.98
2017-07-23T09:01:23.047Z,70.07
2017-07-23T09:02:33.040Z,71.91
2017-07-23T09:03:43.318Z,72
2017-07-23T09:04:53.585Z,71.19
2017-07-23T09:06:03.558Z,71.81
2017-07-23T09:07:13.780Z,74.69
2017-07-23T09:08:24.080Z,75.42
2017-07-23T09:09:34.386Z,75.56
2017-07-23T09:10:44.366Z,75.27
2017-07-23T09:11:54.658Z,74.79
2017-07-23T09:13:04.875Z,75.94
2017-07-23T09:14:15.166Z,76.32
2017-07-23T09:15:24.853Z,75.56
2017-07-23T09:16:34.839Z,74.88
2017-07-23T09:17:44.816Z,74.6
2017-07-23T09:18:55.038Z,74.21
2017-07-23T09:20:05.327Z,76.32
2017-07-23T09:21:15.300Z,78.67
2017-07-23T09:22:25.281Z,78.28
2017-07-23T09:23:35.594Z,79.25
2017-07-23T09:24:46.192Z,78.77
2017-07-23T09:25:56.148Z,80.5
2017-07-23T09:27:06.451Z,80.79
2017-07-23T09:28:16.734Z,80.69
2017-07-23T09:29:27.014Z,82.04
2017-07-23T09:30:37.258Z,82.9
2017-07-23T09:31:47.230Z,82.32
2017-07-23T09:32:57.537Z,88.1
2017-07-23T09:34:07.853Z,86.27
2017-07-23T09:35:18.143Z,86.36
2017-07-23T09:36:28.364Z,87.52
2017-07-23T09:37:38.659Z,92.33
2017-07-23T09:38:48.948Z,92.52
2017-07-23T09:39:59.248Z,91.52
2017-07-23T09:41:09.539Z,91.36
2017-07-23T09:42:19.766Z,91.27
2017-07-23T09:43:30.049Z,91.36
2017-07-23T09:44:40.027Z,92.23
2017-07-23T09:45:50.004Z,92.71
2017-07-23T09:47:00.298Z,91.94
2017-07-23T09:48:10.839Z,91.36
2017-07-23T09:49:20.811Z,91.08
2017-07-23T09:50:31.094Z,91.56
2017-07-23T09:51:41.388Z,91.41
2017-07-23T09:52:51.688Z,91.89
2017-07-23T09:54:02.237Z,95.65
2017-07-23T09:55:12.538Z,97.67
2017-07-23T09:56:22.498Z,98.72
2017-07-23T09:57:32.168Z,99.59
2017-07-23T09:58:42.441Z,98.82
2017-07-23T09:59:52.673Z,99.69
2017-07-23T10:01:02.970Z,99.59
2017-07-23T10:02:13.251Z,99.59
2017-07-23T10:03:23.531Z,99.3
2017-07-23T10:04:33.821Z,99.99
2017-07-23T10:05:44.080Z,99.99
2017-07-23T10:06:54.372Z,99.99
2017-07-23T10:08:04.674Z,99.69
2017-07-23T10:09:14.340Z,99.78
2017-07-23T10:10:24.642Z,99.99
2017-07-23T10:11:35.182Z,99.99
2017-07-23T10:12:45.489Z,99.99
2017-07-23T10:13:55.781Z,99.99
2017-07-23T10:15:05.765Z,99.93
2017-07-23T10:16:16.040Z,99.99
2017-07-23T10:17:26.554Z,99.74
2017-07-23T10:18:36.583Z,99.99
2017-07-23T10:19:46.886Z,99.99
2017-07-23T10:20:57.175Z,99.99
2017-07-23T10:22:06.517Z,99.99
2017-07-23T10:23:16.799Z,99.99
2017-07-23T10:24:26.771Z,99.99
2017-07-23T10:25:36.748Z,99.99
2017-07-23T10:26:46.727Z,99.99
2017-07-23T10:27:56.396Z,99.99
2017-07-23T10:29:06.946Z,99.99
2017-07-23T10:30:17.375Z,99.99
2017-07-23T10:31:27.351Z,99.99
2017-07-23T10:32:37.035Z,99.99
2017-07-23T10:33:47.333Z,99.99
2017-07-23T10:34:57.862Z,99.99
2017-07-23T10:36:08.189Z,99.99
2017-07-23T10:37:17.859Z,99.99
2017-07-23T10:38:28.152Z,99.99
2017-07-23T10:39:38.435Z,99.99
2017-07-23T10:40:48.650Z,99.99
2017-07-23T10:41:58.928Z,99.99
2017-07-23T10:43:09.207Z,99.99
2017-07-23T10:44:19.517Z,99.99
2017-07-23T10:45:29.485Z,99.99
2017-07-23T10:46:40.038Z,99.99
2017-07-23T10:47:49.694Z,99.99
2017-07-23T10:48:59.987Z,99.99
2017-07-23T10:50:09.977Z,99.99
2017-07-23T10:51:20.270Z,99.99
2017-07-23T10:52:30.486Z,99.69
2017-07-23T10:53:40.815Z,99.99
2017-07-23T10:54:50.797Z,99.93
2017-07-23T10:56:01.099Z,99.88
2017-07-23T10:57:11.402Z,98.87
2017-07-23T10:58:21.632Z,98.78
2017-07-23T10:59:31.921Z,98.1
2017-07-23T11:00:41.607Z,96.12
2017-07-23T11:01:51.596Z,94.58
2017-07-23T11:03:01.901Z,94.87
2017-07-23T11:04:12.126Z,96.31
2017-07-23T11:05:22.112Z,96.03
2017-07-23T11:06:32.419Z,94.1
2017-07-23T11:07:42.425Z,93.52
2017-07-23T11:08:52.721Z,93.32
2017-07-23T11:10:03.271Z,93.85
2017-07-23T11:11:13.572Z,93.41
2017-07-23T11:12:23.858Z,90.13
2017-07-23T11:13:34.156Z,90.95
2017-07-23T11:14:44.451Z,88.63
2017-07-23T11:15:55.001Z,88.73
2017-07-23T11:17:05.305Z,87.76
2017-07-23T11:18:15.606Z,88.34
2017-07-23T11:19:25.582Z,90.13
2017-07-23T11:20:35.882Z,89.55
2017-07-23T11:21:46.423Z,90.37
2017-07-23T11:22:56.728Z,89.22
2017-07-23T11:24:07.018Z,90.67
2017-07-23T11:25:16.986Z,90.67
2017-07-23T11:26:27.290Z,89.7
2017-07-23T11:27:37.266Z,90.19
2017-07-23T11:28:47.568Z,90.86
2017-07-23T11:29:57.885Z,90.09
2017-07-23T11:31:07.888Z,89.03
2017-07-23T11:32:17.886Z,89.61
2017-07-23T11:33:28.128Z,88.73
2017-07-23T11:34:37.789Z,90.09
2017-07-23T11:35:48.105Z,89.26
2017-07-23T11:36:58.382Z,87.87
2017-07-23T11:38:08.678Z,88.83
2017-07-23T11:39:18.908Z,89.7
2017-07-23T11:40:29.215Z,90.47
2017-07-23T11:41:39.503Z,89.41
2017-07-23T11:42:49.473Z,89.17
2017-07-23T11:43:59.136Z,89.55
2017-07-23T11:45:09.685Z,89.84
2017-07-23T11:46:19.970Z,88.78
2017-07-23T11:47:29.952Z,89.75
2017-07-23T11:48:40.247Z,89.07
2017-07-23T11:49:50.221Z,90.42
2017-07-23T11:51:00.754Z,90.33
2017-07-23T11:52:11.035Z,88.73
2017-07-23T11:53:21.334Z,88.39
2017-07-23T11:54:31.315Z,87.47
2017-07-23T11:55:41.608Z,88.43
2017-07-23T11:56:52.144Z,86.83
2017-07-23T11:58:02.450Z,88.82
2017-07-23T11:59:12.753Z,85.63
2017-07-23T12:00:22.733Z,86.45
2017-07-23T12:01:33.054Z,87.32
2017-07-23T12:02:43.604Z,86.65
2017-07-23T12:03:53.937Z,86.4
2017-07-23T12:05:04.452Z,84.46
2017-07-23T12:06:14.756Z,81.6
2017-07-23T12:07:25.035Z,84.41
2017-07-23T12:08:35.571Z,83.25
2017-07-23T12:09:45.540Z,82.43
2017-07-23T12:10:55.846Z,82.04
2017-07-23T12:12:05.531Z,83.88
2017-07-23T12:13:15.512Z,82.72
2017-07-23T12:14:26.078Z,83.34
2017-07-23T12:15:36.366Z,82.72
2017-07-23T12:16:46.652Z,81.89
2017-07-23T12:17:56.637Z,78.89
2017-07-23T12:19:06.936Z,78.21
2017-07-23T12:20:17.538Z,76.28
2017-07-23T12:21:27.847Z,74.15
2017-07-23T12:22:37.829Z,75.37
2017-07-23T12:23:47.804Z,76.14
2017-07-23T12:24:58.105Z,74.92
2017-07-23T12:26:08.637Z,73.69
2017-07-23T12:27:18.629Z,72.92
2017-07-23T12:28:28.922Z,72.28
2017-07-23T12:29:39.224Z,70.37
2017-07-23T12:30:49.531Z,70.63
2017-07-23T12:32:00.082Z,72.18
2017-07-23T12:33:10.366Z,71.95
2017-07-23T12:34:20.663Z,72.15
2017-07-23T12:35:30.955Z,69.76
2017-07-23T12:36:41.244Z,70.6
2017-07-23T12:37:51.769Z,68.89
2017-07-23T12:39:01.447Z,67.53
2017-07-23T12:40:11.751Z,68.56
2017-07-23T12:41:22.043Z,70.21
2017-07-23T12:42:32.354Z,69.43
2017-07-23T12:43:42.899Z,69.31
2017-07-23T12:44:53.173Z,70.34
2017-07-23T12:46:03.490Z,71.88
2017-07-23T12:47:13.780Z,72.91
2017-07-23T12:48:23.771Z,73.16
2017-07-23T12:49:34.315Z,73.3
2017-07-23T12:50:43.988Z,73.3
2017-07-23T12:51:54.282Z,73.59
2017-07-23T12:53:04.243Z,73.04
2017-07-23T12:54:14.577Z,72.56
2017-07-23T12:55:25.141Z,72.85
2017-07-23T12:56:35.447Z,71.11
2017-07-23T12:57:45.462Z,70.08
2017-07-23T12:58:55.731Z,69.79
2017-07-23T13:00:06.029Z,67.79
2017-07-23T13:01:16.280Z,68.56
2017-07-23T13:02:26.587Z,67.79
2017-07-23T13:03:36.883Z,67.79
2017-07-23T13:04:47.181Z,67.02
2017-07-23T13:05:57.481Z,67.21
2017-07-23T13:07:08.025Z,67.79
2017-07-23T13:08:17.995Z,67.88
2017-07-23T13:09:27.967Z,68.18
2017-07-23T13:10:38.268Z,66.63
2017-07-23T13:11:48.572Z,67.5
2017-07-23T13:12:59.177Z,68.73
2017-07-23T13:14:09.455Z,68.66
2017-07-23T13:15:19.740Z,69.53
2017-07-23T13:16:29.721Z,67.6
2017-07-23T13:17:39.698Z,67.56
2017-07-23T13:18:50.255Z,66.98
2017-07-23T13:20:00.542Z,67.56
2017-07-23T13:21:10.537Z,67.18
2017-07-23T13:22:20.510Z,67.66
2017-07-23T13:23:30.808Z,68.56
2017-07-23T13:24:41.364Z,66.82
2017-07-23T13:25:51.679Z,65.37
2017-07-23T13:27:01.984Z,65.69
2017-07-23T13:28:12.274Z,63.37
2017-07-23T13:29:22.256Z,65.4
2017-07-23T13:30:32.489Z,63.59
2017-07-23T13:31:42.777Z,63.13
2017-07-23T13:32:52.760Z,62.16
2017-07-23T13:34:02.741Z,63.04
2017-07-23T13:35:12.418Z,62.55
2017-07-23T13:36:22.981Z,62.85
2017-07-23T13:37:32.967Z,62.36
2017-07-23T13:38:43.258Z,62.85
2017-07-23T13:39:53.546Z,63.1
2017-07-23T13:41:02.891Z,62.98
2017-07-23T13:42:13.422Z,62.59
2017-07-23T13:43:23.389Z,62.33
2017-07-23T13:44:33.385Z,61.52
2017-07-23T13:45:43.685Z,61.75
2017-07-23T13:46:53.663Z,60.97
2017-07-23T13:48:03.886Z,58.58
2017-07-23T13:49:13.554Z,59.36
2017-07-23T13:50:23.853Z,57.83
2017-07-23T13:51:34.143Z,57.08
2017-07-23T13:52:44.446Z,57.67
2017-07-23T13:53:55.042Z,57.28
2017-07-23T13:55:05.361Z,54.88
2017-07-23T13:56:15.644Z,55.36
2017-07-23T13:57:25.620Z,54.97
2017-07-23T13:58:35.615Z,54.88
2017-07-23T13:59:45.853Z,55.94
2017-07-23T14:00:56.140Z,56.3
2017-07-23T14:02:06.444Z,58.15
2017-07-23T14:03:16.718Z,55.75
2017-07-23T14:04:26.699Z,56.4
2017-07-23T14:05:37.250Z,55.89
2017-07-23T14:06:47.247Z,56.09
2017-07-23T14:07:57.536Z,56.83
2017-07-23T14:09:07.815Z,58.55
2017-07-23T14:10:18.101Z,58.55
2017-07-23T14:11:28.019Z,58.74
2017-07-23T14:12:38.323Z,60.85
2017-07-23T14:13:48.304Z,63.14
2017-07-23T14:14:58.583Z,64.75
2017-07-23T14:16:08.876Z,66.08
2017-07-23T14:17:19.503Z,67.79
2017-07-23T14:18:29.485Z,68.49
2017-07-23T14:19:39.482Z,69.33
2017-07-23T14:20:49.456Z,67.4
2017-07-23T14:21:59.747Z,67.98
2017-07-23T14:23:09.978Z,67.24
2017-07-23T14:24:20.268Z,67.69
2017-07-23T14:25:30.562Z,67.59
2017-07-23T14:26:40.535Z,67.59
2017-07-23T14:27:50.825Z,67.4
2017-07-23T14:29:01.359Z,66.72
2017-07-23T14:30:11.648Z,67.08
2017-07-23T14:31:21.615Z,67.66
2017-07-23T14:32:31.587Z,67.56
2017-07-23T14:33:41.874Z,67.85
2017-07-23T14:34:52.401Z,68.82
2017-07-23T14:36:02.603Z,68.91
2017-07-23T14:37:12.901Z,68.91
2017-07-23T14:38:23.212Z,69.01
2017-07-23T14:39:33.491Z,69.65
2017-07-23T14:40:44.032Z,70.52
2017-07-23T14:41:54.328Z,71.1
2017-07-23T14:43:03.679Z,71.74
2017-07-23T14:44:13.659Z,72.22
2017-07-23T14:45:23.956Z,71.55
2017-07-23T14:46:34.229Z,71.55
2017-07-23T14:47:44.212Z,71.97
2017-07-23T14:48:54.508Z,71.23
2017-07-23T14:50:04.786Z,70.26
2017-07-23T14:51:14.756Z,68.75
2017-07-23T14:52:25.291Z,68.37
2017-07-23T14:53:34.954Z,69.92
2017-07-23T14:54:44.931Z,70.4
2017-07-23T14:55:55.233Z,71.66
2017-07-23T14:57:04.902Z,71.52
2017-07-23T14:58:14.809Z,71.72
2017-07-23T14:59:24.474Z,71.52
2017-07-23T15:00:34.784Z,72
2017-07-23T15:01:44.785Z,72.39
2017-07-23T15:02:55.070Z,72.2
2017-07-23T15:04:04.982Z,72.58
2017-07-23T15:05:15.281Z,72.68
2017-07-23T15:06:25.250Z,72.68
2017-07-23T15:07:35.537Z,73.52
2017-07-23T15:08:45.513Z,74.19